sensor_id;sensor_type;location;lat;lon;timestamp;temperature;humidity
12025;DHT22;6073;53.230;10.444;2024-03-17T00:01:35;2.30;99.90
12025;DHT22;6073;53.230;10.444;2024-03-17T00:04:01;2.30;99.90
12025;DHT22;6073;53.230;10.444;2024-03-17T00:06:27;2.30;99.90
12025;DHT22;6073;53.230;10.444;2024-03-17T00:08:53;2.30;99.90
12025;DHT22;6073;53.230;10.444;2024-03-17T00:11:20;2.30;99.90
12025;DHT22;6073;53.230;10.444;2024-03-17T00:13:45;2.20;99.90
12025;DHT22;6073;53.230;10.444;2024-03-17T00:16:11;2.20;99.90
12025;DHT22;6073;53.230;10.444;2024-03-17T00:18:38;2.20;99.90
12025;DHT22;6073;53.230;10.444;2024-03-17T00:21:04;2.10;99.90
12025;DHT22;6073;53.230;10.444;2024-03-17T00:23:30;2.10;99.90
12025;DHT22;6073;53.230;10.444;2024-03-17T00:25:55;2.10;99.90
12025;DHT22;6073;53.230;10.444;2024-03-17T00:28:21;2.00;99.90
12025;DHT22;6073;53.230;10.444;2024-03-17T00:30:47;2.00;99.90
12025;DHT22;6073;53.230;10.444;2024-03-17T00:33:13;2.00;99.90
12025;DHT22;6073;53.230;10.444;2024-03-17T00:35:39;2.00;99.90
12025;DHT22;6073;53.230;10.444;2024-03-17T00:38:05;2.00;99.90
12025;DHT22;6073;53.230;10.444;2024-03-17T00:40:39;2.00;99.90
12025;DHT22;6073;53.230;10.444;2024-03-17T00:43:10;2.00;99.90
12025;DHT22;6073;53.230;10.444;2024-03-17T00:45:36;2.10;99.90
12025;DHT22;6073;53.230;10.444;2024-03-17T00:48:03;2.00;99.90
12025;DHT22;6073;53.230;10.444;2024-03-17T00:50:28;2.10;99.90
12025;DHT22;6073;53.230;10.444;2024-03-17T00:52:54;2.10;99.90
12025;DHT22;6073;53.230;10.444;2024-03-17T00:55:19;2.10;99.90
12025;DHT22;6073;53.230;10.444;2024-03-17T00:57:45;2.10;99.90
12025;DHT22;6073;53.230;10.444;2024-03-17T01:00:11;2.10;99.90
12025;DHT22;6073;53.230;10.444;2024-03-17T01:02:40;2.00;99.90
12025;DHT22;6073;53.230;10.444;2024-03-17T01:05:06;2.10;99.90
12025;DHT22;6073;53.230;10.444;2024-03-17T01:07:33;2.10;99.90
12025;DHT22;6073;53.230;10.444;2024-03-17T01:09:58;2.00;99.90
12025;DHT22;6073;53.230;10.444;2024-03-17T01:12:25;2.00;99.90
12025;DHT22;6073;53.230;10.444;2024-03-17T01:14:50;2.00;99.90
12025;DHT22;6073;53.230;10.444;2024-03-17T01:17:16;1.90;99.90
12025;DHT22;6073;53.230;10.444;2024-03-17T01:19:44;1.90;99.90
12025;DHT22;6073;53.230;10.444;2024-03-17T01:22:10;1.90;99.90
12025;DHT22;6073;53.230;10.444;2024-03-17T01:24:35;1.90;99.90
12025;DHT22;6073;53.230;10.444;2024-03-17T01:27:01;1.80;99.90
12025;DHT22;6073;53.230;10.444;2024-03-17T01:29:27;1.80;99.90
12025;DHT22;6073;53.230;10.444;2024-03-17T01:31:53;1.70;99.90
12025;DHT22;6073;53.230;10.444;2024-03-17T01:34:21;1.70;99.90
12025;DHT22;6073;53.230;10.444;2024-03-17T01:36:47;1.60;99.90
12025;DHT22;6073;53.230;10.444;2024-03-17T01:39:13;1.60;99.90
12025;DHT22;6073;53.230;10.444;2024-03-17T01:41:39;1.60;99.90
12025;DHT22;6073;53.230;10.444;2024-03-17T01:44:04;1.60;99.90
12025;DHT22;6073;53.230;10.444;2024-03-17T01:46:30;1.60;99.90
12025;DHT22;6073;53.230;10.444;2024-03-17T01:48:56;1.60;99.90
12025;DHT22;6073;53.230;10.444;2024-03-17T01:51:22;1.60;99.90
12025;DHT22;6073;53.230;10.444;2024-03-17T01:53:48;1.50;99.90
12025;DHT22;6073;53.230;10.444;2024-03-17T01:56:16;1.50;99.90
12025;DHT22;6073;53.230;10.444;2024-03-17T01:58:44;1.50;99.90
12025;DHT22;6073;53.230;10.444;2024-03-17T02:01:10;1.50;99.90
12025;DHT22;6073;53.230;10.444;2024-03-17T02:03:36;1.50;99.90
12025;DHT22;6073;53.230;10.444;2024-03-17T02:06:01;1.50;99.90
12025;DHT22;6073;53.230;10.444;2024-03-17T02:08:27;1.50;99.90
12025;DHT22;6073;53.230;10.444;2024-03-17T02:10:53;1.50;99.90
12025;DHT22;6073;53.230;10.444;2024-03-17T02:13:20;1.40;99.90
12025;DHT22;6073;53.230;10.444;2024-03-17T02:15:46;1.40;99.90
12025;DHT22;6073;53.230;10.444;2024-03-17T02:18:12;1.30;99.90
12025;DHT22;6073;53.230;10.444;2024-03-17T02:20:38;1.30;99.90
12025;DHT22;6073;53.230;10.444;2024-03-17T02:23:26;1.20;99.90
12025;DHT22;6073;53.230;10.444;2024-03-17T02:25:52;1.10;99.90
12025;DHT22;6073;53.230;10.444;2024-03-17T02:28:18;1.10;99.90
12025;DHT22;6073;53.230;10.444;2024-03-17T02:30:44;1.00;99.90
12025;DHT22;6073;53.230;10.444;2024-03-17T02:33:10;1.00;99.90
12025;DHT22;6073;53.230;10.444;2024-03-17T02:35:35;1.00;99.90
12025;DHT22;6073;53.230;10.444;2024-03-17T02:38:01;1.10;99.90
12025;DHT22;6073;53.230;10.444;2024-03-17T02:40:27;1.10;99.90
12025;DHT22;6073;53.230;10.444;2024-03-17T02:42:54;1.10;99.90
12025;DHT22;6073;53.230;10.444;2024-03-17T02:45:19;1.10;99.90
12025;DHT22;6073;53.230;10.444;2024-03-17T02:47:46;1.10;99.90
12025;DHT22;6073;53.230;10.444;2024-03-17T02:50:12;1.10;99.90
12025;DHT22;6073;53.230;10.444;2024-03-17T02:52:37;1.10;99.90
12025;DHT22;6073;53.230;10.444;2024-03-17T02:55:03;1.10;99.90
12025;DHT22;6073;53.230;10.444;2024-03-17T02:57:29;1.00;99.90
12025;DHT22;6073;53.230;10.444;2024-03-17T02:59:56;1.10;99.90
12025;DHT22;6073;53.230;10.444;2024-03-17T03:02:22;1.10;99.90
12025;DHT22;6073;53.230;10.444;2024-03-17T03:04:47;1.10;99.90
12025;DHT22;6073;53.230;10.444;2024-03-17T03:07:13;1.10;99.90
12025;DHT22;6073;53.230;10.444;2024-03-17T03:09:39;1.00;99.90
12025;DHT22;6073;53.230;10.444;2024-03-17T03:12:04;0.90;99.90
12025;DHT22;6073;53.230;10.444;2024-03-17T03:14:31;0.90;99.90
12025;DHT22;6073;53.230;10.444;2024-03-17T03:16:57;0.80;99.90
12025;DHT22;6073;53.230;10.444;2024-03-17T03:19:23;0.80;99.90
12025;DHT22;6073;53.230;10.444;2024-03-17T03:21:49;0.80;99.90
12025;DHT22;6073;53.230;10.444;2024-03-17T03:24:15;0.80;99.90
12025;DHT22;6073;53.230;10.444;2024-03-17T03:26:41;0.80;99.90
12025;DHT22;6073;53.230;10.444;2024-03-17T03:29:07;0.80;99.90
12025;DHT22;6073;53.230;10.444;2024-03-17T03:31:33;0.70;99.90
12025;DHT22;6073;53.230;10.444;2024-03-17T03:33:59;0.70;99.90
12025;DHT22;6073;53.230;10.444;2024-03-17T03:36:27;0.70;99.90
12025;DHT22;6073;53.230;10.444;2024-03-17T03:38:52;0.70;99.90
12025;DHT22;6073;53.230;10.444;2024-03-17T03:41:18;0.70;99.90
12025;DHT22;6073;53.230;10.444;2024-03-17T03:43:44;0.70;99.90
12025;DHT22;6073;53.230;10.444;2024-03-17T03:46:12;0.60;99.90
12025;DHT22;6073;53.230;10.444;2024-03-17T03:48:37;0.70;99.90
12025;DHT22;6073;53.230;10.444;2024-03-17T03:51:04;0.70;99.90
12025;DHT22;6073;53.230;10.444;2024-03-17T03:53:31;0.60;99.90
12025;DHT22;6073;53.230;10.444;2024-03-17T03:55:57;0.70;99.90
12025;DHT22;6073;53.230;10.444;2024-03-17T03:58:23;0.70;99.90
12025;DHT22;6073;53.230;10.444;2024-03-17T04:00:49;0.70;99.90
12025;DHT22;6073;53.230;10.444;2024-03-17T04:03:15;0.60;99.90
12025;DHT22;6073;53.230;10.444;2024-03-17T04:05:41;0.60;99.90
12025;DHT22;6073;53.230;10.444;2024-03-17T04:08:07;0.60;99.90
12025;DHT22;6073;53.230;10.444;2024-03-17T04:10:34;0.50;99.90
12025;DHT22;6073;53.230;10.444;2024-03-17T04:12:59;0.50;99.90
12025;DHT22;6073;53.230;10.444;2024-03-17T04:15:25;0.50;99.90
12025;DHT22;6073;53.230;10.444;2024-03-17T04:17:50;0.50;99.90
12025;DHT22;6073;53.230;10.444;2024-03-17T04:20:16;0.40;99.90
12025;DHT22;6073;53.230;10.444;2024-03-17T04:22:42;0.40;99.90
12025;DHT22;6073;53.230;10.444;2024-03-17T04:25:11;0.40;99.90
12025;DHT22;6073;53.230;10.444;2024-03-17T04:27:38;0.40;99.90
12025;DHT22;6073;53.230;10.444;2024-03-17T04:30:05;0.40;99.90
12025;DHT22;6073;53.230;10.444;2024-03-17T04:32:31;0.30;99.90
12025;DHT22;6073;53.230;10.444;2024-03-17T04:34:57;0.30;99.90
12025;DHT22;6073;53.230;10.444;2024-03-17T04:37:22;0.30;99.90
12025;DHT22;6073;53.230;10.444;2024-03-17T04:39:48;0.30;99.90
12025;DHT22;6073;53.230;10.444;2024-03-17T04:42:15;0.30;99.90
12025;DHT22;6073;53.230;10.444;2024-03-17T04:44:44;0.30;99.90
12025;DHT22;6073;53.230;10.444;2024-03-17T04:47:10;0.30;99.90
12025;DHT22;6073;53.230;10.444;2024-03-17T04:49:40;0.30;99.90
12025;DHT22;6073;53.230;10.444;2024-03-17T04:52:07;0.30;99.90
12025;DHT22;6073;53.230;10.444;2024-03-17T04:54:33;0.30;99.90
12025;DHT22;6073;53.230;10.444;2024-03-17T04:56:58;0.20;99.90
12025;DHT22;6073;53.230;10.444;2024-03-17T04:59:24;0.20;99.90
12025;DHT22;6073;53.230;10.444;2024-03-17T05:01:50;0.20;99.90
12025;DHT22;6073;53.230;10.444;2024-03-17T05:04:16;0.20;99.90
12025;DHT22;6073;53.230;10.444;2024-03-17T05:06:41;0.20;99.90
12025;DHT22;6073;53.230;10.444;2024-03-17T05:09:08;0.10;99.90
12025;DHT22;6073;53.230;10.444;2024-03-17T05:11:33;0.10;99.90
12025;DHT22;6073;53.230;10.444;2024-03-17T05:14:00;0.10;99.90
12025;DHT22;6073;53.230;10.444;2024-03-17T05:16:26;0.10;99.90
12025;DHT22;6073;53.230;10.444;2024-03-17T05:18:55;0.10;99.90
12025;DHT22;6073;53.230;10.444;2024-03-17T05:21:20;0.10;99.90
12025;DHT22;6073;53.230;10.444;2024-03-17T05:23:47;0.10;99.90
12025;DHT22;6073;53.230;10.444;2024-03-17T05:26:14;0.00;99.90
12025;DHT22;6073;53.230;10.444;2024-03-17T05:28:39;0.00;99.90
12025;DHT22;6073;53.230;10.444;2024-03-17T05:31:05;0.00;99.90
12025;DHT22;6073;53.230;10.444;2024-03-17T05:33:31;0.00;99.90
12025;DHT22;6073;53.230;10.444;2024-03-17T05:35:58;0.00;99.90
12025;DHT22;6073;53.230;10.444;2024-03-17T05:38:25;0.10;99.90
12025;DHT22;6073;53.230;10.444;2024-03-17T05:41:01;0.10;99.90
12025;DHT22;6073;53.230;10.444;2024-03-17T05:43:28;0.10;99.90
12025;DHT22;6073;53.230;10.444;2024-03-17T05:45:56;0.20;99.90
12025;DHT22;6073;53.230;10.444;2024-03-17T05:48:22;0.20;99.90
12025;DHT22;6073;53.230;10.444;2024-03-17T05:50:48;0.10;99.90
12025;DHT22;6073;53.230;10.444;2024-03-17T05:53:14;0.20;99.90
12025;DHT22;6073;53.230;10.444;2024-03-17T05:55:39;0.30;99.90
12025;DHT22;6073;53.230;10.444;2024-03-17T05:58:08;0.30;99.90
12025;DHT22;6073;53.230;10.444;2024-03-17T06:00:38;0.40;99.90
12025;DHT22;6073;53.230;10.444;2024-03-17T06:03:05;0.40;99.90
12025;DHT22;6073;53.230;10.444;2024-03-17T06:05:34;0.40;99.90
12025;DHT22;6073;53.230;10.444;2024-03-17T06:08:01;0.40;99.90
12025;DHT22;6073;53.230;10.444;2024-03-17T06:10:31;0.50;99.90
12025;DHT22;6073;53.230;10.444;2024-03-17T06:12:58;0.50;99.90
12025;DHT22;6073;53.230;10.444;2024-03-17T06:15:25;0.50;99.90
12025;DHT22;6073;53.230;10.444;2024-03-17T06:17:52;0.60;99.90
12025;DHT22;6073;53.230;10.444;2024-03-17T06:20:19;0.70;99.90
12025;DHT22;6073;53.230;10.444;2024-03-17T06:22:44;0.80;99.90
12025;DHT22;6073;53.230;10.444;2024-03-17T06:25:11;0.90;99.90
12025;DHT22;6073;53.230;10.444;2024-03-17T06:27:37;1.00;99.90
12025;DHT22;6073;53.230;10.444;2024-03-17T06:30:03;1.00;99.90
12025;DHT22;6073;53.230;10.444;2024-03-17T06:32:30;1.10;99.90
12025;DHT22;6073;53.230;10.444;2024-03-17T06:34:57;1.10;99.90
12025;DHT22;6073;53.230;10.444;2024-03-17T06:37:23;1.20;99.90
12025;DHT22;6073;53.230;10.444;2024-03-17T06:39:49;1.30;99.90
12025;DHT22;6073;53.230;10.444;2024-03-17T06:42:14;1.40;99.90
12025;DHT22;6073;53.230;10.444;2024-03-17T06:44:41;1.70;99.90
12025;DHT22;6073;53.230;10.444;2024-03-17T06:47:06;2.10;99.90
12025;DHT22;6073;53.230;10.444;2024-03-17T06:49:32;2.80;99.90
12025;DHT22;6073;53.230;10.444;2024-03-17T06:51:58;3.70;99.90
12025;DHT22;6073;53.230;10.444;2024-03-17T06:54:23;4.50;99.90
12025;DHT22;6073;53.230;10.444;2024-03-17T06:56:49;4.80;99.90
12025;DHT22;6073;53.230;10.444;2024-03-17T06:59:16;5.20;99.90
12025;DHT22;6073;53.230;10.444;2024-03-17T07:01:41;5.40;99.90
12025;DHT22;6073;53.230;10.444;2024-03-17T07:04:07;6.10;99.90
12025;DHT22;6073;53.230;10.444;2024-03-17T07:06:32;6.50;99.90
12025;DHT22;6073;53.230;10.444;2024-03-17T07:08:58;6.60;99.90
12025;DHT22;6073;53.230;10.444;2024-03-17T07:11:23;7.10;99.90
12025;DHT22;6073;53.230;10.444;2024-03-17T07:13:49;7.50;99.90
12025;DHT22;6073;53.230;10.444;2024-03-17T07:16:18;7.50;99.90
12025;DHT22;6073;53.230;10.444;2024-03-17T07:18:44;7.60;99.90
12025;DHT22;6073;53.230;10.444;2024-03-17T07:21:10;7.90;99.90
12025;DHT22;6073;53.230;10.444;2024-03-17T07:23:36;7.30;99.90
12025;DHT22;6073;53.230;10.444;2024-03-17T07:26:02;7.30;99.90
12025;DHT22;6073;53.230;10.444;2024-03-17T07:28:31;7.70;99.90
12025;DHT22;6073;53.230;10.444;2024-03-17T07:30:58;7.70;99.90
12025;DHT22;6073;53.230;10.444;2024-03-17T07:33:25;8.20;99.90
12025;DHT22;6073;53.230;10.444;2024-03-17T07:35:52;8.20;99.90
12025;DHT22;6073;53.230;10.444;2024-03-17T07:38:19;8.90;99.90
12025;DHT22;6073;53.230;10.444;2024-03-17T07:40:54;8.80;99.90
12025;DHT22;6073;53.230;10.444;2024-03-17T07:43:20;9.30;99.90
12025;DHT22;6073;53.230;10.444;2024-03-17T07:45:45;10.10;99.90
12025;DHT22;6073;53.230;10.444;2024-03-17T07:48:12;10.10;99.90
12025;DHT22;6073;53.230;10.444;2024-03-17T07:50:38;10.10;99.90
12025;DHT22;6073;53.230;10.444;2024-03-17T07:53:04;10.10;99.90
12025;DHT22;6073;53.230;10.444;2024-03-17T07:55:29;10.50;99.90
12025;DHT22;6073;53.230;10.444;2024-03-17T07:57:56;10.30;99.90
12025;DHT22;6073;53.230;10.444;2024-03-17T08:00:22;10.70;99.90
12025;DHT22;6073;53.230;10.444;2024-03-17T08:02:48;10.80;99.90
12025;DHT22;6073;53.230;10.444;2024-03-17T08:05:13;10.60;99.90
12025;DHT22;6073;53.230;10.444;2024-03-17T08:07:39;10.90;99.90
12025;DHT22;6073;53.230;10.444;2024-03-17T08:10:07;10.90;99.90
12025;DHT22;6073;53.230;10.444;2024-03-17T08:12:33;11.60;99.90
12025;DHT22;6073;53.230;10.444;2024-03-17T08:14:58;11.70;99.90
12025;DHT22;6073;53.230;10.444;2024-03-17T08:17:25;11.70;99.90
12025;DHT22;6073;53.230;10.444;2024-03-17T08:19:50;11.70;99.90
12025;DHT22;6073;53.230;10.444;2024-03-17T08:22:17;11.40;99.90
12025;DHT22;6073;53.230;10.444;2024-03-17T08:24:42;11.10;99.90
12025;DHT22;6073;53.230;10.444;2024-03-17T08:27:08;11.50;99.90
12025;DHT22;6073;53.230;10.444;2024-03-17T08:29:34;11.80;99.90
12025;DHT22;6073;53.230;10.444;2024-03-17T08:32:00;12.30;99.90
12025;DHT22;6073;53.230;10.444;2024-03-17T08:34:25;11.90;99.90
12025;DHT22;6073;53.230;10.444;2024-03-17T08:36:51;11.60;99.90
12025;DHT22;6073;53.230;10.444;2024-03-17T08:39:16;12.00;99.90
12025;DHT22;6073;53.230;10.444;2024-03-17T08:41:42;11.70;99.90
12025;DHT22;6073;53.230;10.444;2024-03-17T08:44:09;12.20;99.90
12025;DHT22;6073;53.230;10.444;2024-03-17T08:46:35;12.50;99.90
12025;DHT22;6073;53.230;10.444;2024-03-17T08:49:00;12.10;99.90
12025;DHT22;6073;53.230;10.444;2024-03-17T08:51:26;12.20;99.90
12025;DHT22;6073;53.230;10.444;2024-03-17T08:53:53;12.30;99.90
12025;DHT22;6073;53.230;10.444;2024-03-17T08:56:18;12.30;99.90
12025;DHT22;6073;53.230;10.444;2024-03-17T08:58:45;12.50;99.90
12025;DHT22;6073;53.230;10.444;2024-03-17T09:01:13;12.60;99.90
12025;DHT22;6073;53.230;10.444;2024-03-17T09:03:40;13.30;99.90
12025;DHT22;6073;53.230;10.444;2024-03-17T09:06:15;14.30;99.90
12025;DHT22;6073;53.230;10.444;2024-03-17T09:08:41;14.60;99.90
12025;DHT22;6073;53.230;10.444;2024-03-17T09:11:12;14.10;99.90
12025;DHT22;6073;53.230;10.444;2024-03-17T09:13:38;13.90;99.90
12025;DHT22;6073;53.230;10.444;2024-03-17T09:16:04;13.40;99.90
12025;DHT22;6073;53.230;10.444;2024-03-17T09:18:31;12.90;99.90
12025;DHT22;6073;53.230;10.444;2024-03-17T09:21:05;12.80;99.90
12025;DHT22;6073;53.230;10.444;2024-03-17T09:23:32;12.60;99.90
12025;DHT22;6073;53.230;10.444;2024-03-17T09:26:08;13.20;99.90
12025;DHT22;6073;53.230;10.444;2024-03-17T09:28:34;12.60;99.90
12025;DHT22;6073;53.230;10.444;2024-03-17T09:31:00;12.50;99.90
12025;DHT22;6073;53.230;10.444;2024-03-17T09:33:28;12.30;99.90
12025;DHT22;6073;53.230;10.444;2024-03-17T09:36:02;12.60;99.90
12025;DHT22;6073;53.230;10.444;2024-03-17T09:38:29;12.30;99.90
12025;DHT22;6073;53.230;10.444;2024-03-17T09:40:54;12.00;99.90
12025;DHT22;6073;53.230;10.444;2024-03-17T09:43:24;11.40;99.90
12025;DHT22;6073;53.230;10.444;2024-03-17T09:45:50;11.00;99.90
12025;DHT22;6073;53.230;10.444;2024-03-17T09:48:20;10.80;99.90
12025;DHT22;6073;53.230;10.444;2024-03-17T09:50:56;10.80;99.90
12025;DHT22;6073;53.230;10.444;2024-03-17T09:53:33;10.40;99.90
12025;DHT22;6073;53.230;10.444;2024-03-17T09:56:08;10.50;99.90
12025;DHT22;6073;53.230;10.444;2024-03-17T09:58:34;10.50;99.90
12025;DHT22;6073;53.230;10.444;2024-03-17T10:01:00;10.50;99.90
12025;DHT22;6073;53.230;10.444;2024-03-17T10:03:45;10.30;99.90
12025;DHT22;6073;53.230;10.444;2024-03-17T10:06:12;10.20;99.90
12025;DHT22;6073;53.230;10.444;2024-03-17T10:08:59;10.20;99.90
12025;DHT22;6073;53.230;10.444;2024-03-17T10:11:36;10.40;99.90
12025;DHT22;6073;53.230;10.444;2024-03-17T10:14:04;10.70;99.90
12025;DHT22;6073;53.230;10.444;2024-03-17T10:16:31;10.90;99.90
12025;DHT22;6073;53.230;10.444;2024-03-17T10:19:13;11.00;99.90
12025;DHT22;6073;53.230;10.444;2024-03-17T10:21:43;11.10;99.90
12025;DHT22;6073;53.230;10.444;2024-03-17T10:24:11;10.90;99.90
12025;DHT22;6073;53.230;10.444;2024-03-17T10:26:44;10.70;99.90
12025;DHT22;6073;53.230;10.444;2024-03-17T10:29:35;10.60;99.90
12025;DHT22;6073;53.230;10.444;2024-03-17T10:32:14;10.50;99.90
12025;DHT22;6073;53.230;10.444;2024-03-17T10:34:42;10.60;99.90
12025;DHT22;6073;53.230;10.444;2024-03-17T10:37:11;10.50;99.90
12025;DHT22;6073;53.230;10.444;2024-03-17T10:39:42;10.70;99.90
12025;DHT22;6073;53.230;10.444;2024-03-17T10:42:10;10.50;99.90
12025;DHT22;6073;53.230;10.444;2024-03-17T10:44:37;10.20;99.90
12025;DHT22;6073;53.230;10.444;2024-03-17T10:47:04;10.30;99.90
12025;DHT22;6073;53.230;10.444;2024-03-17T10:49:36;10.10;99.90
12025;DHT22;6073;53.230;10.444;2024-03-17T10:52:05;10.20;99.90
12025;DHT22;6073;53.230;10.444;2024-03-17T10:54:31;10.30;99.90
12025;DHT22;6073;53.230;10.444;2024-03-17T10:57:16;10.20;99.90
12025;DHT22;6073;53.230;10.444;2024-03-17T10:59:47;10.30;99.90
12025;DHT22;6073;53.230;10.444;2024-03-17T11:02:23;10.10;99.90
12025;DHT22;6073;53.230;10.444;2024-03-17T11:04:55;10.30;99.90
12025;DHT22;6073;53.230;10.444;2024-03-17T11:07:22;10.40;99.90
12025;DHT22;6073;53.230;10.444;2024-03-17T11:09:49;10.80;99.90
12025;DHT22;6073;53.230;10.444;2024-03-17T11:12:45;11.00;99.90
12025;DHT22;6073;53.230;10.444;2024-03-17T11:20:33;10.20;99.90
12025;DHT22;6073;53.230;10.444;2024-03-17T11:22:59;10.20;99.90
12025;DHT22;6073;53.230;10.444;2024-03-17T11:25:40;10.10;99.90
12025;DHT22;6073;53.230;10.444;2024-03-17T11:28:09;9.80;99.90
12025;DHT22;6073;53.230;10.444;2024-03-17T11:39:01;9.70;99.90
12025;DHT22;6073;53.230;10.444;2024-03-17T11:41:46;9.70;99.90
12025;DHT22;6073;53.230;10.444;2024-03-17T11:47:02;9.90;99.90
12025;DHT22;6073;53.230;10.444;2024-03-17T11:49:39;10.00;99.90
12025;DHT22;6073;53.230;10.444;2024-03-17T11:52:10;10.20;99.90
12025;DHT22;6073;53.230;10.444;2024-03-17T11:54:40;10.40;99.90
12025;DHT22;6073;53.230;10.444;2024-03-17T11:57:08;10.40;99.90
12025;DHT22;6073;53.230;10.444;2024-03-17T11:59:35;10.40;99.90
12025;DHT22;6073;53.230;10.444;2024-03-17T12:02:02;10.30;99.90
12025;DHT22;6073;53.230;10.444;2024-03-17T12:04:28;9.90;99.90
12025;DHT22;6073;53.230;10.444;2024-03-17T12:06:58;10.00;99.90
12025;DHT22;6073;53.230;10.444;2024-03-17T12:09:26;10.10;99.90
12025;DHT22;6073;53.230;10.444;2024-03-17T12:12:05;10.20;99.90
12025;DHT22;6073;53.230;10.444;2024-03-17T12:14:36;10.20;99.90
12025;DHT22;6073;53.230;10.444;2024-03-17T12:17:03;10.60;99.90
12025;DHT22;6073;53.230;10.444;2024-03-17T12:19:29;10.70;99.90
12025;DHT22;6073;53.230;10.444;2024-03-17T12:21:57;10.80;99.90
12025;DHT22;6073;53.230;10.444;2024-03-17T12:24:34;10.70;99.90
12025;DHT22;6073;53.230;10.444;2024-03-17T12:27:01;10.60;99.90
12025;DHT22;6073;53.230;10.444;2024-03-17T12:29:35;10.50;99.90
12025;DHT22;6073;53.230;10.444;2024-03-17T12:32:05;10.40;99.90
12025;DHT22;6073;53.230;10.444;2024-03-17T12:34:34;10.40;99.90
12025;DHT22;6073;53.230;10.444;2024-03-17T12:37:00;10.40;99.90
12025;DHT22;6073;53.230;10.444;2024-03-17T12:39:32;10.40;99.90
12025;DHT22;6073;53.230;10.444;2024-03-17T12:44:37;10.40;99.90
12025;DHT22;6073;53.230;10.444;2024-03-17T12:47:08;10.70;99.90
12025;DHT22;6073;53.230;10.444;2024-03-17T12:49:34;10.60;99.90
12025;DHT22;6073;53.230;10.444;2024-03-17T12:52:01;10.50;99.90
12025;DHT22;6073;53.230;10.444;2024-03-17T12:54:27;10.40;99.90
12025;DHT22;6073;53.230;10.444;2024-03-17T12:57:06;10.40;99.90
12025;DHT22;6073;53.230;10.444;2024-03-17T12:59:51;10.10;99.90
12025;DHT22;6073;53.230;10.444;2024-03-17T13:02:19;9.90;99.90
12025;DHT22;6073;53.230;10.444;2024-03-17T13:04:45;9.80;99.90
12025;DHT22;6073;53.230;10.444;2024-03-17T13:07:11;9.90;99.90
12025;DHT22;6073;53.230;10.444;2024-03-17T13:09:37;10.00;99.90
12025;DHT22;6073;53.230;10.444;2024-03-17T13:12:13;10.10;99.90
12025;DHT22;6073;53.230;10.444;2024-03-17T13:14:39;10.20;99.90
12025;DHT22;6073;53.230;10.444;2024-03-17T13:17:07;10.00;99.90
12025;DHT22;6073;53.230;10.444;2024-03-17T13:19:39;10.00;99.90
12025;DHT22;6073;53.230;10.444;2024-03-17T13:22:06;10.00;99.90
12025;DHT22;6073;53.230;10.444;2024-03-17T13:24:32;9.90;99.90
12025;DHT22;6073;53.230;10.444;2024-03-17T13:26:57;9.70;99.90
12025;DHT22;6073;53.230;10.444;2024-03-17T13:29:29;9.70;99.90
12025;DHT22;6073;53.230;10.444;2024-03-17T13:31:55;9.80;99.90
12025;DHT22;6073;53.230;10.444;2024-03-17T13:34:20;9.70;99.90
12025;DHT22;6073;53.230;10.444;2024-03-17T13:36:46;9.90;99.90
12025;DHT22;6073;53.230;10.444;2024-03-17T13:39:11;9.90;99.90
12025;DHT22;6073;53.230;10.444;2024-03-17T13:41:37;10.00;99.90
12025;DHT22;6073;53.230;10.444;2024-03-17T13:44:02;10.10;99.90
12025;DHT22;6073;53.230;10.444;2024-03-17T13:46:28;10.10;99.90
12025;DHT22;6073;53.230;10.444;2024-03-17T13:48:53;10.00;99.90
12025;DHT22;6073;53.230;10.444;2024-03-17T13:51:22;10.00;99.90
12025;DHT22;6073;53.230;10.444;2024-03-17T13:53:48;10.20;99.90
12025;DHT22;6073;53.230;10.444;2024-03-17T13:56:14;10.30;99.90
12025;DHT22;6073;53.230;10.444;2024-03-17T13:58:40;10.30;99.90
12025;DHT22;6073;53.230;10.444;2024-03-17T14:01:05;10.10;99.90
12025;DHT22;6073;53.230;10.444;2024-03-17T14:03:32;10.20;99.90
12025;DHT22;6073;53.230;10.444;2024-03-17T14:05:58;10.20;99.90
12025;DHT22;6073;53.230;10.444;2024-03-17T14:08:24;9.90;99.90
12025;DHT22;6073;53.230;10.444;2024-03-17T14:10:51;9.90;99.90
12025;DHT22;6073;53.230;10.444;2024-03-17T14:13:16;9.90;99.90
12025;DHT22;6073;53.230;10.444;2024-03-17T14:15:42;9.90;99.90
12025;DHT22;6073;53.230;10.444;2024-03-17T14:18:08;10.00;99.90
12025;DHT22;6073;53.230;10.444;2024-03-17T14:20:33;10.00;99.90
12025;DHT22;6073;53.230;10.444;2024-03-17T14:22:59;10.00;99.90
12025;DHT22;6073;53.230;10.444;2024-03-17T14:25:24;10.00;99.90
12025;DHT22;6073;53.230;10.444;2024-03-17T14:27:51;10.10;99.90
12025;DHT22;6073;53.230;10.444;2024-03-17T14:30:17;10.20;99.90
12025;DHT22;6073;53.230;10.444;2024-03-17T14:32:44;10.30;99.90
12025;DHT22;6073;53.230;10.444;2024-03-17T14:35:13;10.40;99.90
12025;DHT22;6073;53.230;10.444;2024-03-17T14:37:40;10.40;99.90
12025;DHT22;6073;53.230;10.444;2024-03-17T14:40:08;10.50;99.90
12025;DHT22;6073;53.230;10.444;2024-03-17T14:42:40;10.60;99.90
12025;DHT22;6073;53.230;10.444;2024-03-17T14:45:07;10.50;99.90
12025;DHT22;6073;53.230;10.444;2024-03-17T14:47:33;10.50;99.90
12025;DHT22;6073;53.230;10.444;2024-03-17T14:49:59;10.50;99.90
12025;DHT22;6073;53.230;10.444;2024-03-17T14:52:24;10.60;99.90
12025;DHT22;6073;53.230;10.444;2024-03-17T14:54:50;10.70;99.90
12025;DHT22;6073;53.230;10.444;2024-03-17T14:57:18;10.70;99.90
12025;DHT22;6073;53.230;10.444;2024-03-17T14:59:45;10.60;99.90
12025;DHT22;6073;53.230;10.444;2024-03-17T15:02:11;10.60;99.90
12025;DHT22;6073;53.230;10.444;2024-03-17T15:04:36;10.40;99.90
12025;DHT22;6073;53.230;10.444;2024-03-17T15:07:02;10.30;99.90
12025;DHT22;6073;53.230;10.444;2024-03-17T15:09:27;10.30;99.90
12025;DHT22;6073;53.230;10.444;2024-03-17T15:11:53;10.30;99.90
12025;DHT22;6073;53.230;10.444;2024-03-17T15:14:18;10.30;99.90
12025;DHT22;6073;53.230;10.444;2024-03-17T15:16:44;10.30;99.90
12025;DHT22;6073;53.230;10.444;2024-03-17T15:19:10;10.20;99.90
12025;DHT22;6073;53.230;10.444;2024-03-17T15:21:36;10.10;99.90
12025;DHT22;6073;53.230;10.444;2024-03-17T15:24:01;10.00;99.90
12025;DHT22;6073;53.230;10.444;2024-03-17T15:26:28;9.90;99.90
12025;DHT22;6073;53.230;10.444;2024-03-17T15:28:54;9.70;99.90
12025;DHT22;6073;53.230;10.444;2024-03-17T15:31:21;9.80;99.90
12025;DHT22;6073;53.230;10.444;2024-03-17T15:33:50;9.80;99.90
12025;DHT22;6073;53.230;10.444;2024-03-17T15:36:16;9.70;99.90
12025;DHT22;6073;53.230;10.444;2024-03-17T15:38:42;9.70;99.90
12025;DHT22;6073;53.230;10.444;2024-03-17T15:41:09;9.70;99.90
12025;DHT22;6073;53.230;10.444;2024-03-17T15:43:38;9.70;99.90
12025;DHT22;6073;53.230;10.444;2024-03-17T15:46:23;9.80;99.90
12025;DHT22;6073;53.230;10.444;2024-03-17T15:48:49;9.80;99.90
12025;DHT22;6073;53.230;10.444;2024-03-17T15:51:15;9.90;99.90
12025;DHT22;6073;53.230;10.444;2024-03-17T15:53:45;9.80;99.90
12025;DHT22;6073;53.230;10.444;2024-03-17T15:56:10;10.00;99.90
12025;DHT22;6073;53.230;10.444;2024-03-17T15:58:36;10.10;99.90
12025;DHT22;6073;53.230;10.444;2024-03-17T16:01:06;10.10;99.90